Imotski, Croatia

2:31 PM CEST on August 05, 2015 (GMT +0200)
Kostanje-Poljica | | Change Station
CLOSE
Current Station
Personal Weather Station
Location: Kostanje, SPLITSKO-DALMATINSKA žUPANIJA
Elevation: 728 ft
Nearby Weather Stations

Elev 728 ft 43.44 °N, 16.83 °E | Updated 1 second ago

Scattered Clouds
Scattered Clouds
96.1 °F
Feels Like 100 °F
N
10.4
Wind Variable Wind from South
Gusts 10.4 mph

Today
High -- | Low -- °F
--% Chance of Precip.
Yesterday
High -- | Low -- °F
Precip. -- in
5:44 AM 8:09 PM
Waning Gibbous, 67% visible
Pressure 29.83 in
Visibility 6.2 miles
Clouds Few 5000 ft
Scattered Clouds 8900 ft
Heat Index 100 °F
Dew Point 66 °F
Humidity 38%
Rainfall 0.00 in
Snow Depth Not available.
UV 7 out of 12
Pollen Not available.
Air Quality Not available.
Flu Activity Not available.
METAR LQMO 051230Z 28005KT 180V320 9999 FEW050 SCT089 37/15 Q1010

More Conditions Fewer Conditions

Pressure 29.83 in
Visibility 6.2 miles
Clouds Few 5000 ft
Scattered Clouds 8900 ft
Heat Index 100 °F
Dew Point 66 °F
Humidity 38%
Rainfall 0.00 in
Snow Depth Not available.
UV 7 out of 12
Pollen Not available.
Air Quality Not available.
Flu Activity Not available.
METAR LQMO 051230Z 28005KT 180V320 9999 FEW050 SCT089 37/15 Q1010

More Conditions Fewer Conditions

10-Day Weather Forecast

×

Almanac

Astronomy

Aug. 05, 2015 Rise Set
Actual Time
Civil Twilight
Nautical Twilight
Astronomical Twilight
Moon
Length of Visible Light
Length of Day
Tomorrow will be .
, % of the Moon is Illuminated

Today's Extremes

Country Highs Country Lows

Community

WunderPhotos

Upload Photos

1,844,170 photos uploaded!

WunderBlogs® & News

Nearby

Air Quality

  Air Quality AQ Index Pollutant
Not available.

Snow Depth

Station Depth Elevation

Earthquake Activity

City Distance Mag. Time & Date
Minimum magnitude displayed is 2.5.

Coastal Water Temperatures

Place Temperature

Stations

Nearby Weather Stations

Station Location Temp. Windchill Dew Point Humidity Wind Precip. Elev Updated Type